Time;durP1;ratioP1;P1;durP2;ratioP2;P2;SDS_P1;SDS_P2;PMS_P1;PMS_P2;Temp;Humidity;BMP_temperature;BMP_pressure;BME280_temperature;BME280_humidity;BME280_pressure;Samples;Min_cycle;Max_cycle;Signal;HPM_P1;HPM_P2
2022/11/23 00:01:21;;;;;;;16.10;8.82;;;2.90;99.90;;;;;;5050628;28;20045;-47
2022/11/23 00:03:53;;;;;;;17.63;9.27;;;2.90;99.90;;;;;;5050980;28;20072;-47
2022/11/23 00:06:22;;;;;;;20.90;9.82;;;2.90;99.90;;;;;;5049810;28;20048;-46
2022/11/23 00:08:49;;;;;;;17.13;9.43;;;2.90;99.90;;;;;;5039344;28;20073;-46
2022/11/23 00:11:17;;;;;;;20.83;9.18;;;2.90;99.90;;;;;;5033628;28;20710;-46
2022/11/23 00:13:44;;;;;;;15.60;8.10;;;2.80;99.90;;;;;;5029845;28;20046;-46
2022/11/23 00:16:22;;;;;;;17.10;9.10;;;2.80;99.90;;;;;;5045922;28;20068;-46
2022/11/23 00:18:53;;;;;;;;;;;2.80;99.90;;;;;;5031079;28;20466;-46
2022/11/23 00:21:23;;;;;;;15.90;8.05;;;2.80;99.90;;;;;;5031329;28;19979;-46
2022/11/23 00:23:50;;;;;;;14.60;7.68;;;2.80;99.90;;;;;;5042279;28;20563;-46
2022/11/23 00:26:17;;;;;;;15.05;7.43;;;2.80;99.90;;;;;;5050725;28;20040;-46
2022/11/23 00:28:44;;;;;;;;;;;2.70;99.90;;;;;;5048355;28;20102;-48
2022/11/23 00:31:14;;;;;;;12.63;6.90;;;2.70;99.90;;;;;;5039788;28;19983;-46
2022/11/23 00:33:42;;;;;;;13.05;7.13;;;2.60;99.90;;;;;;5053382;28;20053;-46
2022/11/23 00:36:14;;;;;;;;;;;2.60;99.90;;;;;;5053424;28;20049;-47
2022/11/23 00:38:42;;;;;;;13.52;7.38;;;2.60;99.90;;;;;;5051788;28;19921;-46
2022/11/23 00:41:14;;;;;;;15.23;7.63;;;2.50;99.90;;;;;;5053303;28;20068;-46
2022/11/23 00:43:42;;;;;;;13.57;6.75;;;2.50;99.90;;;;;;5052665;28;20064;-46
2022/11/23 00:46:19;;;;;;;14.90;7.93;;;2.50;99.90;;;;;;5053429;28;20045;-46
2022/11/23 00:48:47;;;;;;;;;;;2.40;99.90;;;;;;5051479;28;20111;-47
2022/11/23 00:51:18;;;;;;;9.57;5.33;;;2.30;99.90;;;;;;5053140;28;20435;-46
2022/11/23 00:53:45;;;;;;;15.73;7.50;;;2.30;99.90;;;;;;5051877;28;20056;-46
2022/11/23 00:56:12;;;;;;;19.10;7.88;;;2.20;99.90;;;;;;5053778;28;20079;-46
2022/11/23 00:58:39;;;;;;;15.38;7.93;;;2.20;99.90;;;;;;5041868;28;20048;-46
2022/11/23 01:01:10;;;;;;;12.48;5.43;;;2.20;99.90;;;;;;5034299;28;20534;-47
2022/11/23 01:03:42;;;;;;;14.90;7.80;;;2.10;99.90;;;;;;5034218;28;20053;-47
2022/11/23 01:06:15;;;;;;;16.08;7.43;;;2.10;99.90;;;;;;5040837;28;20033;-46
2022/11/23 01:09:08;;;;;;;16.35;7.88;;;2.10;99.90;;;;;;5045715;28;20052;-46
2022/11/23 01:11:34;;;;;;;15.43;8.05;;;2.00;99.90;;;;;;5034517;28;20084;-46
2022/11/23 01:14:11;;;;;;;17.50;8.30;;;2.00;99.90;;;;;;5048579;23;20045;-49
2022/11/23 01:16:40;;;;;;;14.15;7.72;;;2.00;99.90;;;;;;5050012;28;20115;-50
2022/11/23 01:19:14;;;;;;;14.05;8.25;;;2.00;99.90;;;;;;5042256;28;20096;-48
2022/11/23 01:21:41;;;;;;;15.52;7.82;;;2.00;99.90;;;;;;5045729;28;20355;-48
2022/11/23 01:24:11;;;;;;;14.25;7.65;;;2.00;99.90;;;;;;5041184;28;20080;-48
2022/11/23 01:26:39;;;;;;;15.75;7.88;;;2.00;99.90;;;;;;5032200;28;20054;-49
2022/11/23 01:29:05;;;;;;;;;;;1.90;99.90;;;;;;5030965;28;20791;-49
2022/11/23 01:31:32;;;;;;;16.85;8.65;;;1.90;99.90;;;;;;5033043;28;19925;-49
2022/11/23 01:34:01;;;;;;;18.67;8.30;;;2.00;99.90;;;;;;5031852;28;20053;-48
2022/11/23 01:36:30;;;;;;;19.25;9.30;;;1.90;99.90;;;;;;5024348;28;20173;-48
2022/11/23 01:38:58;;;;;;;17.52;8.38;;;1.90;99.90;;;;;;5032458;28;20096;-51
2022/11/23 01:41:29;;;;;;;20.88;9.73;;;2.00;99.90;;;;;;5031551;28;20065;-48
2022/11/23 01:43:56;;;;;;;17.40;8.57;;;2.00;99.90;;;;;;5030125;28;20498;-48
2022/11/23 01:46:23;;;;;;;19.30;9.32;;;2.00;99.90;;;;;;5030607;28;20429;-50
2022/11/23 01:49:06;;;;;;;19.77;9.27;;;2.00;99.90;;;;;;5030171;28;20041;-50
2022/11/23 01:51:39;;;;;;;14.50;7.97;;;1.90;99.90;;;;;;5029316;28;20053;-49
2022/11/23 01:54:13;;;;;;;18.38;8.98;;;1.90;99.90;;;;;;5031915;28;20136;-49
2022/11/23 01:56:45;;;;;;;19.27;9.68;;;1.90;99.90;;;;;;5031275;28;20046;-49
2022/11/23 01:59:15;;;;;;;18.27;8.70;;;1.90;99.90;;;;;;5032517;28;20468;-51
2022/11/23 02:01:43;;;;;;;15.25;8.38;;;1.80;99.90;;;;;;5026376;28;20299;-49
2022/11/23 02:04:18;;;;;;;;;;;1.80;99.90;;;;;;5032379;28;20048;-49
2022/11/23 02:06:46;;;;;;;19.27;9.55;;;1.80;99.90;;;;;;5029608;28;20439;-50
2022/11/23 02:09:15;;;;;;;18.25;8.93;;;1.80;99.90;;;;;;5030519;28;20084;-51
2022/11/23 02:11:42;;;;;;;17.85;8.98;;;1.80;99.90;;;;;;5030940;28;20046;-49
2022/11/23 02:14:12;;;;;;;21.48;9.73;;;1.80;99.90;;;;;;5031073;28;20045;-49
2022/11/23 02:16:42;;;;;;;17.38;9.02;;;1.80;99.90;;;;;;5032032;28;20054;-50
2022/11/23 02:19:37;;;;;;;18.08;9.05;;;1.80;99.90;;;;;;5027941;28;20095;-51
2022/11/23 02:22:11;;;;;;;16.48;8.52;;;1.70;99.90;;;;;;5017065;28;20050;-49
2022/11/23 02:24:46;;;;;;;18.15;9.70;;;1.70;99.90;;;;;;5032717;28;20064;-50
2022/11/23 02:27:14;;;;;;;21.80;9.48;;;1.70;99.90;;;;;;5029975;28;20088;-48
2022/11/23 02:29:41;;;;;;;17.48;8.90;;;1.70;99.90;;;;;;5032633;28;20049;-49
2022/11/23 02:32:07;;;;;;;19.58;9.13;;;1.70;99.90;;;;;;5031823;28;20053;-49
2022/11/23 02:34:34;;;;;;;14.15;6.50;;;1.70;99.90;;;;;;5032592;28;20076;-49
2022/11/23 02:37:01;;;;;;;12.10;6.68;;;1.70;99.90;;;;;;5031693;28;20083;-49
2022/11/23 02:39:39;;;;;;;17.90;9.27;;;1.60;99.90;;;;;;5023894;28;20104;-49
2022/11/23 02:42:05;;;;;;;15.55;8.52;;;1.60;99.90;;;;;;5031023;28;20046;-50
2022/11/23 02:44:52;;;;;;;17.13;8.88;;;1.70;99.90;;;;;;5028939;28;20091;-50
2022/11/23 02:47:19;;;;;;;18.95;8.77;;;1.70;99.90;;;;;;5032464;28;20410;-50
2022/11/23 02:49:48;;;;;;;12.68;6.65;;;1.70;99.90;;;;;;5031677;28;20049;-52
2022/11/23 02:52:16;;;;;;;17.90;9.07;;;1.70;99.90;;;;;;5026307;28;20520;-50
2022/11/23 02:54:43;;;;;;;17.92;8.90;;;1.70;99.90;;;;;;5023256;28;20034;-51
2022/11/23 02:57:11;;;;;;;19.08;9.88;;;1.70;99.90;;;;;;5030807;28;20065;-51
2022/11/23 02:59:39;;;;;;;19.80;10.45;;;1.70;99.90;;;;;;5029310;28;20045;-50
2022/11/23 03:02:06;;;;;;;19.17;9.85;;;1.70;99.90;;;;;;5030544;28;20046;-51
2022/11/23 03:04:34;;;;;;;18.63;9.23;;;1.70;99.90;;;;;;5029914;28;20421;-49
2022/11/23 03:07:01;;;;;;;12.80;6.53;;;1.70;99.90;;;;;;5031028;28;20060;-50
2022/11/23 03:09:28;;;;;;;21.17;10.52;;;1.60;99.90;;;;;;5025407;28;20048;-51
2022/11/23 03:11:55;;;;;;;18.15;9.18;;;1.60;99.90;;;;;;5030321;28;20052;-49
2022/11/23 03:14:24;;;;;;;21.33;9.85;;;1.60;99.90;;;;;;5030011;28;20058;-52
2022/11/23 03:16:57;;;;;;;17.92;9.93;;;1.70;99.90;;;;;;5030206;28;20037;-51
2022/11/23 03:19:24;;;;;;;20.38;9.38;;;1.70;99.90;;;;;;5030534;28;20050;-52
2022/11/23 03:21:52;;;;;;;18.67;9.57;;;1.70;99.90;;;;;;5029114;28;20045;-50
2022/11/23 03:24:19;;;;;;;14.52;7.10;;;1.70;99.90;;;;;;5030381;28;20046;-51
2022/11/23 03:26:49;;;;;;;18.73;8.65;;;1.70;99.90;;;;;;5028595;28;20045;-51
2022/11/23 03:29:18;;;;;;;17.23;9.18;;;1.70;99.90;;;;;;5030693;28;20132;-49
2022/11/23 03:31:46;;;;;;;;;;;1.70;99.90;;;;;;5030085;28;20045;-51
2022/11/23 03:34:14;;;;;;;31.38;9.27;;;1.70;99.90;;;;;;5030495;28;19921;-51
2022/11/23 03:36:43;;;;;;;16.15;8.00;;;1.70;99.90;;;;;;5028596;28;20057;-51
2022/11/23 03:39:10;;;;;;;16.08;8.18;;;1.60;99.90;;;;;;5030445;28;20049;-49
2022/11/23 03:41:58;;;;;;;15.45;8.52;;;1.60;99.90;;;;;;5029760;28;20051;-52
2022/11/23 03:44:31;;;;;;;16.05;8.45;;;1.60;99.90;;;;;;5026379;28;20138;-51
2022/11/23 03:46:58;;;;;;;14.90;8.10;;;1.60;99.90;;;;;;5030006;28;20056;-49
2022/11/23 03:49:26;;;;;;;15.55;8.50;;;1.60;99.90;;;;;;5029885;28;20057;-51
2022/11/23 03:51:53;;;;;;;15.05;8.00;;;1.60;99.90;;;;;;5028427;28;20041;-49
2022/11/23 03:54:19;;;;;;;14.23;8.50;;;1.60;99.90;;;;;;5031269;28;20073;-51
2022/11/23 03:56:47;;;;;;;;;;;1.60;99.90;;;;;;5031020;28;20038;-49
2022/11/23 03:59:13;;;;;;;15.10;8.30;;;1.70;99.90;;;;;;5030162;28;19928;-52
2022/11/23 04:01:41;;;;;;;16.13;7.85;;;1.70;99.90;;;;;;5028120;28;20525;-49
2022/11/23 04:04:14;;;;;;;16.20;8.35;;;1.70;99.90;;;;;;5028241;28;20061;-50
2022/11/23 04:06:53;;;;;;;15.90;8.40;;;1.60;99.90;;;;;;5030144;28;20053;-50
2022/11/23 04:09:24;;;;;;;28.73;8.70;;;1.60;99.90;;;;;;5028913;28;20136;-52
2022/11/23 04:12:11;;;;;;;16.67;8.57;;;1.60;99.90;;;;;;5029568;28;20407;-50
2022/11/23 04:14:39;;;;;;;15.68;8.60;;;1.60;99.90;;;;;;5029554;28;20058;-49
2022/11/23 04:17:05;;;;;;;18.00;9.57;;;1.60;99.90;;;;;;5029132;28;20095;-49
2022/11/23 04:19:32;;;;;;;13.35;6.20;;;1.60;99.90;;;;;;5028597;28;20046;-49
2022/11/23 04:21:59;;;;;;;;;;;1.70;99.90;;;;;;5029831;28;20046;-51
2022/11/23 04:24:31;;;;;;;16.35;8.27;;;1.70;99.90;;;;;;5029740;28;19921;-51
2022/11/23 04:27:01;;;;;;;15.80;8.30;;;1.70;99.90;;;;;;5030035;28;20041;-49
2022/11/23 04:29:28;;;;;;;10.65;5.28;;;1.70;99.90;;;;;;5028369;28;20660;-51
2022/11/23 04:31:55;;;;;;;15.70;8.68;;;1.70;99.90;;;;;;5028996;28;20049;-52
2022/11/23 04:34:22;;;;;;;19.48;8.93;;;1.80;99.90;;;;;;5030466;28;20033;-51
2022/11/23 04:36:51;;;;;;;19.48;9.52;;;1.80;99.90;;;;;;5028930;28;20490;-48
2022/11/23 04:39:24;;;;;;;21.73;8.65;;;1.80;99.90;;;;;;5029966;28;20038;-50
2022/11/23 04:42:13;;;;;;;13.73;7.68;;;1.80;99.90;;;;;;5030506;28;20056;-49
2022/11/23 04:44:46;;;;;;;16.33;8.55;;;1.80;99.90;;;;;;5027569;28;20453;-49
2022/11/23 04:47:14;;;;;;;17.75;9.23;;;1.80;99.90;;;;;;5029698;28;20457;-50
2022/11/23 04:49:42;;;;;;;17.90;9.07;;;1.80;99.90;;;;;;5029287;28;20045;-51
2022/11/23 04:52:09;;;;;;;24.30;9.68;;;1.90;99.90;;;;;;5028294;28;20051;-52
2022/11/23 04:54:43;;;;;;;18.70;9.00;;;1.90;99.90;;;;;;5029477;28;20049;-48
2022/11/23 04:57:10;;;;;;;20.65;9.48;;;1.90;99.90;;;;;;5028492;28;20041;-51
2022/11/23 04:59:38;;;;;;;18.35;9.90;;;1.90;99.90;;;;;;5029665;28;20176;-50
2022/11/23 05:02:06;;;;;;;23.48;9.88;;;1.90;99.90;;;;;;5028358;28;20099;-49
2022/11/23 05:04:51;;;;;;;18.80;9.05;;;1.90;99.90;;;;;;5023288;28;20421;-48
2022/11/23 05:07:19;;;;;;;18.38;10.15;;;1.90;99.90;;;;;;5028506;28;20464;-48
2022/11/23 05:09:52;;;;;;;17.90;9.68;;;1.90;99.90;;;;;;5029495;28;20050;-51
2022/11/23 05:12:20;;;;;;;18.10;9.65;;;2.00;99.90;;;;;;5028823;28;20050;-49
2022/11/23 05:14:47;;;;;;;12.23;7.07;;;2.00;99.90;;;;;;5026283;28;20037;-49
2022/11/23 05:17:19;;;;;;;19.55;9.63;;;2.00;99.90;;;;;;5024958;28;20643;-51
2022/11/23 05:19:48;;;;;;;21.33;9.55;;;2.00;99.90;;;;;;5032462;28;20054;-50
2022/11/23 05:22:16;;;;;;;16.30;8.85;;;2.00;99.90;;;;;;5032341;28;20161;-50
2022/11/23 05:24:42;;;;;;;16.30;9.35;;;2.00;99.90;;;;;;5031614;28;20037;-51
2022/11/23 05:27:14;;;;;;;14.68;7.85;;;2.00;99.90;;;;;;5027251;28;20424;-48
2022/11/23 05:29:41;;;;;;;10.45;6.47;;;1.90;99.90;;;;;;5029617;28;20104;-49
2022/11/23 05:32:07;;;;;;;12.48;6.18;;;1.90;99.90;;;;;;5032143;28;20502;-48
2022/11/23 05:34:34;;;;;;;16.25;8.60;;;2.00;99.90;;;;;;5032674;28;20100;-49
2022/11/23 05:37:03;;;;;;;15.55;8.35;;;2.00;99.90;;;;;;5029306;28;20076;-48
2022/11/23 05:39:30;;;;;;;15.60;9.13;;;2.00;99.90;;;;;;5032230;28;20052;-51
2022/11/23 05:41:59;;;;;;;18.38;9.20;;;2.00;99.90;;;;;;5029782;28;20049;-52
2022/11/23 05:44:34;;;;;;;21.70;9.55;;;2.10;99.90;;;;;;5032300;28;20510;-49
2022/11/23 05:47:03;;;;;;;14.65;8.32;;;2.00;99.90;;;;;;5047385;28;20072;-50
2022/11/23 05:49:32;;;;;;;18.50;8.02;;;2.10;99.90;;;;;;5052037;28;20049;-49
2022/11/23 05:52:01;;;;;;;18.73;8.95;;;2.00;99.90;;;;;;5030885;28;20042;-49
2022/11/23 05:54:29;;;;;;;17.67;8.77;;;2.00;99.90;;;;;;5032229;28;20050;-50
2022/11/23 05:57:09;;;;;;;15.88;8.60;;;2.00;99.90;;;;;;5035051;28;20041;-51
2022/11/23 05:59:40;;;;;;;15.63;8.88;;;2.00;99.90;;;;;;5039230;28;21075;-51
2022/11/23 06:02:10;;;;;;;15.32;8.73;;;2.00;99.90;;;;;;5035935;28;20469;-51
2022/11/23 06:04:37;;;;;;;11.55;5.97;;;2.10;99.90;;;;;;5037898;28;20166;-49
2022/11/23 06:07:08;;;;;;;16.02;7.85;;;2.10;99.90;;;;;;5040787;28;20386;-51
2022/11/23 06:09:51;;;;;;;20.27;9.65;;;2.10;99.90;;;;;;5034933;28;20414;-50
2022/11/23 06:12:18;;;;;;;14.60;6.50;;;2.10;99.90;;;;;;5037917;28;20512;-50
2022/11/23 06:14:45;;;;;;;19.90;6.35;;;2.10;99.90;;;;;;5030528;28;20485;-51
2022/11/23 06:17:14;;;;;;;24.10;8.57;;;2.10;99.90;;;;;;5031348;28;20072;-50
2022/11/23 06:19:44;;;;;;;19.25;7.90;;;2.00;99.90;;;;;;5029761;28;20050;-49
2022/11/23 06:22:11;;;;;;;20.90;8.88;;;2.00;99.90;;;;;;5031249;28;20056;-51
2022/11/23 06:24:53;;;;;;;18.75;8.90;;;2.10;99.90;;;;;;5030305;28;20049;-51
2022/11/23 06:27:32;;;;;;;15.85;8.32;;;2.10;99.90;;;;;;5031904;28;20049;-52
2022/11/23 06:30:04;;;;;;;19.45;9.15;;;2.20;99.90;;;;;;5031837;28;20567;-48
2022/11/23 06:32:31;;;;;;;21.17;10.63;;;2.20;99.90;;;;;;5027185;28;20057;-49
2022/11/23 06:34:59;;;;;;;20.55;10.57;;;2.20;99.90;;;;;;5031410;28;20042;-49
2022/11/23 06:37:30;;;;;;;24.90;12.32;;;2.30;99.90;;;;;;5031365;28;20045;-49
2022/11/23 06:39:56;;;;;;;18.80;11.13;;;2.40;99.90;;;;;;5030578;28;20037;-49
2022/11/23 06:42:24;;;;;;;17.88;10.00;;;2.40;99.90;;;;;;5030736;28;20461;-51
2022/11/23 06:45:14;;;;;;;23.55;10.10;;;2.40;99.90;;;;;;5032312;28;20141;-49
2022/11/23 06:47:42;;;;;;;19.67;9.80;;;2.40;99.90;;;;;;5042138;28;20486;-50
2022/11/23 06:50:10;;;;;;;21.10;11.35;;;2.40;99.90;;;;;;5031368;28;20096;-48
2022/11/23 06:52:37;;;;;;;24.02;11.80;;;2.50;99.90;;;;;;5030564;28;20052;-51
2022/11/23 06:55:04;;;;;;;20.88;11.02;;;2.50;99.90;;;;;;5031230;28;20044;-49
2022/11/23 06:57:31;;;;;;;25.13;12.55;;;2.60;99.90;;;;;;5030362;28;20049;-51
2022/11/23 06:59:58;;;;;;;19.42;8.68;;;2.60;99.90;;;;;;5031133;28;20042;-48
2022/11/23 07:02:31;;;;;;;26.25;12.68;;;2.70;99.90;;;;;;5028916;28;20046;-50
2022/11/23 07:04:58;;;;;;;26.27;12.75;;;2.70;99.90;;;;;;5030739;28;20103;-49
2022/11/23 07:07:27;;;;;;;26.25;12.52;;;2.70;99.90;;;;;;5027792;28;22312;-48
2022/11/23 07:10:04;;;;;;;29.70;14.13;;;2.80;99.90;;;;;;5029720;28;20398;-48
2022/11/23 07:12:45;;;;;;;29.73;14.18;;;2.80;99.90;;;;;;5029197;28;20045;-51
2022/11/23 07:19:17;;;;;;;23.50;11.07;;;2.80;99.90;;;;;;5041177;28;20025;-47
2022/11/23 07:21:45;;;;;;;22.90;11.63;;;2.80;99.90;;;;;;5052817;28;20059;-47
2022/11/23 07:24:12;;;;;;;21.38;11.32;;;2.80;99.90;;;;;;5050494;28;20051;-47
2022/11/23 07:26:39;;;;;;;21.48;11.95;;;2.90;99.90;;;;;;5039807;28;20509;-46
2022/11/23 07:29:06;;;;;;;22.83;12.30;;;3.00;99.90;;;;;;5039828;28;20044;-46
2022/11/23 07:31:33;;;;;;;;;;;3.10;99.90;;;;;;5033645;28;20045;-46
2022/11/23 07:34:00;;;;;;;21.58;11.63;;;3.20;99.90;;;;;;5055004;28;19986;-48
2022/11/23 07:36:27;;;;;;;20.95;11.38;;;3.30;99.90;;;;;;5047478;28;20064;-47
2022/11/23 07:38:54;;;;;;;19.52;11.05;;;3.30;99.90;;;;;;5052973;28;20066;-46
2022/11/23 07:41:21;;;;;;;23.35;11.05;;;3.30;99.90;;;;;;5053358;28;20049;-49
2022/11/23 07:44:11;;;;;;;22.80;10.95;;;3.30;99.90;;;;;;5053779;28;20483;-47
2022/11/23 07:46:38;;;;;;;17.95;9.77;;;3.50;99.90;;;;;;5059549;28;20064;-48
2022/11/23 07:49:05;;;;;;;19.05;9.55;;;3.60;99.90;;;;;;5051366;28;20124;-50
2022/11/23 07:51:32;;;;;;;32.03;16.13;;;3.80;99.90;;;;;;5051066;28;20158;-46
2022/11/23 07:53:59;;;;;;;27.67;14.38;;;3.80;99.90;;;;;;5071164;28;20115;-48
2022/11/23 07:56:26;;;;;;;24.55;12.05;;;3.90;99.90;;;;;;5071132;28;20048;-47
2022/11/23 07:58:52;;;;;;;26.60;13.15;;;4.00;99.90;;;;;;5071488;28;20147;-47
2022/11/23 08:01:19;;;;;;;18.55;9.23;;;3.90;99.90;;;;;;5061164;28;20067;-46
2022/11/23 08:03:47;;;;;;;15.73;8.77;;;3.90;99.90;;;;;;5051372;28;20083;-46
2022/11/23 08:06:15;;;;;;;14.70;8.40;;;3.80;99.90;;;;;;5049609;28;20072;-45
2022/11/23 08:08:42;;;;;;;18.23;9.77;;;3.80;99.90;;;;;;5060822;28;20052;-45
2022/11/23 08:11:10;;;;;;;21.73;10.30;;;3.70;99.90;;;;;;5070803;28;20056;-46
2022/11/23 08:13:36;;;;;;;23.58;10.00;;;3.70;99.90;;;;;;5069778;28;20040;-46
2022/11/23 08:16:03;;;;;;;20.08;10.88;;;3.60;99.90;;;;;;5060857;28;20073;-46
2022/11/23 08:18:30;;;;;;;21.95;10.50;;;3.60;99.90;;;;;;5059007;28;20064;-46
2022/11/23 08:21:00;;;;;;;22.38;11.73;;;3.50;99.90;;;;;;5050847;28;20121;-46
2022/11/23 08:23:27;;;;;;;22.45;11.05;;;3.50;99.90;;;;;;5032788;28;20099;-46
2022/11/23 08:25:54;;;;;;;24.98;12.52;;;3.50;99.90;;;;;;5054605;28;20215;-47
2022/11/23 08:28:21;;;;;;;28.60;12.63;;;3.50;99.90;;;;;;5055761;28;20128;-46
2022/11/23 08:30:48;;;;;;;23.70;11.80;;;3.50;99.90;;;;;;5070533;28;20044;-46
2022/11/23 08:33:15;;;;;;;25.02;12.15;;;3.50;99.90;;;;;;5069994;28;20448;-46
2022/11/23 08:35:42;;;;;;;25.45;11.43;;;3.50;99.90;;;;;;5066944;28;20152;-48
2022/11/23 08:38:10;;;;;;;27.23;11.77;;;3.50;99.90;;;;;;5070656;28;20040;-46
2022/11/23 08:40:37;;;;;;;24.90;12.30;;;3.50;99.90;;;;;;5069945;28;20032;-46
2022/11/23 08:43:05;;;;;;;21.67;11.38;;;3.60;99.90;;;;;;5069021;28;20069;-46
2022/11/23 08:45:31;;;;;;;20.02;11.32;;;3.60;99.90;;;;;;5058826;28;20574;-46
2022/11/23 08:48:00;;;;;;;24.15;11.80;;;3.70;99.90;;;;;;5070509;28;20048;-46
2022/11/23 08:50:28;;;;;;;25.98;13.15;;;3.70;99.90;;;;;;5070170;28;20079;-46
2022/11/23 08:52:58;;;;;;;25.52;12.68;;;3.80;99.90;;;;;;5070270;28;20062;-46
2022/11/23 08:55:26;;;;;;;23.42;12.93;;;3.80;99.90;;;;;;5074155;28;20123;-46
2022/11/23 08:57:57;;;;;;;24.13;13.43;;;3.80;99.90;;;;;;5074428;28;20068;-47
2022/11/23 09:00:26;;;;;;;27.67;13.38;;;3.80;99.90;;;;;;5066448;28;20068;-46
2022/11/23 09:02:53;;;;;;;28.90;13.65;;;4.00;99.90;;;;;;5055728;28;20044;-46
2022/11/23 09:05:19;;;;;;;25.02;12.82;;;4.00;99.90;;;;;;5073135;28;20249;-46
2022/11/23 09:07:46;;;;;;;23.88;11.35;;;4.00;99.90;;;;;;5070776;28;20463;-46
2022/11/23 09:10:13;;;;;;;26.27;14.50;;;4.00;99.90;;;;;;5058881;28;20114;-46
2022/11/23 09:12:45;;;;;;;23.02;13.35;;;4.00;99.90;;;;;;5053729;28;20045;-46
2022/11/23 09:15:13;;;;;;;26.35;13.30;;;4.10;99.90;;;;;;5059671;28;20120;-47
2022/11/23 09:17:39;;;;;;;24.05;12.30;;;4.10;99.90;;;;;;5072107;28;20597;-46
2022/11/23 09:20:07;;;;;;;26.00;12.23;;;4.20;99.90;;;;;;5073589;28;20098;-46
2022/11/23 09:22:34;;;;;;;25.73;13.45;;;4.20;99.90;;;;;;5073302;28;20123;-46
2022/11/23 09:25:01;;;;;;;27.80;13.60;;;4.20;99.90;;;;;;5070680;28;20135;-47
2022/11/23 09:27:28;;;;;;;22.73;12.27;;;4.30;99.90;;;;;;5073734;28;20396;-46
2022/11/23 09:29:55;;;;;;;25.50;13.25;;;4.30;99.90;;;;;;5073730;28;20489;-47
2022/11/23 09:32:22;;;;;;;26.70;12.95;;;4.40;99.90;;;;;;5069082;28;20055;-48
2022/11/23 09:34:48;;;;;;;24.08;12.90;;;4.50;99.90;;;;;;5072761;28;20124;-46
2022/11/23 09:37:15;;;;;;;26.60;14.57;;;4.60;99.90;;;;;;5073577;28;20512;-47
2022/11/23 09:39:42;;;;;;;25.65;12.45;;;4.70;99.90;;;;;;5055046;28;20041;-46
2022/11/23 09:43:05;;;;;;;24.13;12.82;;;4.80;99.90;;;;;;5072988;28;20119;-46
2022/11/23 09:45:49;;;;;;;25.02;13.18;;;4.90;99.90;;;;;;5010191;28;20601;-46
2022/11/23 09:48:33;;;;;;;18.58;9.65;;;5.00;99.90;;;;;;5010666;28;20465;-46
2022/11/23 09:51:10;;;;;;;21.58;12.18;;;5.00;99.90;;;;;;5048284;28;20114;-46
2022/11/23 09:53:58;;;;;;;24.92;13.15;;;5.20;99.90;;;;;;5072984;28;20501;-46
2022/11/23 09:56:32;;;;;;;19.95;10.52;;;5.30;99.90;;;;;;5065689;28;20037;-47
2022/11/23 09:59:02;;;;;;;19.92;9.98;;;5.40;99.90;;;;;;5061607;28;20065;-47
2022/11/23 10:01:30;;;;;;;15.48;8.75;;;5.30;99.90;;;;;;5060622;28;20068;-46
2022/11/23 10:03:57;;;;;;;15.98;8.43;;;5.30;99.90;;;;;;5072726;28;20059;-47
2022/11/23 10:06:26;;;;;;;19.05;10.18;;;5.20;99.90;;;;;;5072699;28;20087;-46
2022/11/23 10:09:12;;;;;;;17.75;9.95;;;5.20;99.90;;;;;;5069708;28;20064;-46
2022/11/23 10:11:41;;;;;;;16.75;9.90;;;5.30;99.90;;;;;;5072563;28;20469;-46
2022/11/23 10:14:20;;;;;;;23.75;11.40;;;5.20;99.90;;;;;;5072823;28;20068;-47
2022/11/23 10:17:06;;;;;;;24.02;11.43;;;5.30;99.90;;;;;;5064050;28;20112;-47
2022/11/23 10:20:00;;;;;;;21.23;11.45;;;5.30;99.90;;;;;;5066753;28;20073;-47
2022/11/23 10:22:41;;;;;;;21.25;11.15;;;5.30;99.90;;;;;;5072455;28;20459;-46
2022/11/23 10:25:17;;;;;;;21.38;10.63;;;5.30;99.90;;;;;;5072921;28;20083;-46
2022/11/23 10:27:47;;;;;;;27.42;14.05;;;5.40;99.90;;;;;;5073021;28;20465;-47
2022/11/23 10:30:16;;;;;;;28.85;13.25;;;5.30;99.90;;;;;;5058617;28;20041;-46
2022/11/23 10:32:55;;;;;;;20.33;11.75;;;5.30;99.90;;;;;;5067101;28;20047;-47
2022/11/23 10:35:30;;;;;;;26.65;12.93;;;5.20;99.90;;;;;;5072481;28;20094;-46
2022/11/23 10:38:12;;;;;;;26.27;13.55;;;5.20;99.90;;;;;;5069714;28;20036;-48
2022/11/23 10:41:01;;;;;;;22.73;12.38;;;5.10;99.90;;;;;;5072485;28;20032;-46
2022/11/23 10:43:49;;;;;;;31.52;11.20;;;5.10;99.90;;;;;;5064428;28;20385;-47
2022/11/23 10:46:30;;;;;;;25.80;11.30;;;5.10;99.90;;;;;;5077202;28;20118;-50
2022/11/23 10:49:22;;;;;;;21.50;10.73;;;5.30;99.90;;;;;;5059643;28;20069;-50
2022/11/23 10:52:04;;;;;;;19.02;10.73;;;5.20;99.90;;;;;;5051014;28;20094;-47
2022/11/23 10:54:39;;;;;;;19.25;10.80;;;5.20;99.90;;;;;;5051886;28;20477;-47
2022/11/23 10:57:28;;;;;;;19.10;10.75;;;5.20;99.90;;;;;;5065349;28;20064;-49
2022/11/23 11:00:06;;;;;;;20.23;10.70;;;5.30;99.90;;;;;;5072309;28;20032;-50
2022/11/23 11:02:40;;;;;;;22.40;11.15;;;5.40;99.90;;;;;;5070630;28;20634;-46
2022/11/23 11:05:37;;;;;;;19.10;10.35;;;5.40;99.90;;;;;;5059369;28;20551;-49
2022/11/23 11:08:29;;;;;;;25.67;12.57;;;5.30;99.90;;;;;;5063351;28;20053;-47
2022/11/23 11:11:07;;;;;;;20.98;10.40;;;5.40;99.90;;;;;;5072023;28;20496;-46
2022/11/23 11:13:44;;;;;;;23.20;11.32;;;5.40;99.90;;;;;;5070272;28;20082;-46
2022/11/23 11:16:32;;;;;;;20.73;9.57;;;5.60;99.90;;;;;;5072001;28;20049;-47
2022/11/23 11:19:22;;;;;;;21.10;10.55;;;5.80;99.90;;;;;;5072042;28;20068;-46
2022/11/23 11:21:48;;;;;;;18.75;9.40;;;5.90;99.90;;;;;;5067299;28;20040;-46
2022/11/23 11:24:19;;;;;;;15.65;7.13;;;5.90;99.90;;;;;;5071745;28;20555;-46
2022/11/23 11:26:52;;;;;;;18.02;10.00;;;6.30;99.90;;;;;;5071595;28;20489;-46
2022/11/23 11:29:30;;;;;;;14.65;8.05;;;5.80;99.90;;;;;;5061766;28;20129;-46
2022/11/23 11:32:17;;;;;;;13.60;7.68;;;5.90;99.90;;;;;;5050988;28;20068;-46
2022/11/23 11:34:49;;;;;;;12.48;6.60;;;5.90;99.90;;;;;;5053780;28;20049;-46
2022/11/23 11:37:31;;;;;;;17.75;9.38;;;5.90;99.90;;;;;;5071565;28;20495;-46
2022/11/23 11:40:02;;;;;;;17.67;7.88;;;6.00;99.90;;;;;;5066095;28;20068;-46
2022/11/23 11:42:56;;;;;;;15.07;8.13;;;5.90;99.90;;;;;;5069706;28;20043;-47
2022/11/23 11:45:41;;;;;;;15.55;7.90;;;5.90;99.90;;;;;;5070432;28;20048;-48
2022/11/23 11:48:59;;;;;;;14.00;8.15;;;5.90;99.90;;;;;;5071230;28;20063;-46
2022/11/23 11:51:37;;;;;;;13.48;7.88;;;5.90;99.90;;;;;;5065703;28;20080;-46
2022/11/23 11:54:23;;;;;;;;;;;6.00;99.90;;;;;;5071505;28;20078;-46
2022/11/23 11:56:53;;;;;;;11.98;7.18;;;6.20;99.90;;;;;;5059328;28;19925;-46
2022/11/23 11:59:32;;;;;;;14.02;7.78;;;6.30;99.90;;;;;;5052159;28;20485;-49
2022/11/23 12:02:21;;;;;;;11.82;6.78;;;6.30;99.90;;;;;;5070808;28;20105;-46
2022/11/23 12:05:06;;;;;;;13.60;7.95;;;6.10;99.90;;;;;;5071255;28;20551;-47
2022/11/23 12:07:46;;;;;;;14.07;7.68;;;6.00;99.90;;;;;;5070720;28;20651;-46
2022/11/23 12:10:26;;;;;;;13.13;7.28;;;5.90;99.90;;;;;;5063918;28;20080;-51
2022/11/23 12:12:55;;;;;;;13.60;7.28;;;6.00;99.90;;;;;;5062477;28;20124;-46
2022/11/23 12:15:36;;;;;;;15.32;8.15;;;6.00;99.90;;;;;;5058215;28;20398;-46
2022/11/23 12:18:28;;;;;;;11.40;7.13;;;6.10;99.90;;;;;;5059487;28;20489;-46
2022/11/23 12:21:25;;;;;;;18.25;8.70;;;6.10;99.90;;;;;;5067058;28;20120;-47
2022/11/23 12:24:10;;;;;;;15.48;7.90;;;6.10;99.90;;;;;;5058590;28;20485;-46
2022/11/23 12:27:10;;;;;;;13.88;6.68;;;6.10;99.90;;;;;;5061991;28;20111;-47
2022/11/23 12:29:55;;;;;;;12.82;7.15;;;6.00;99.90;;;;;;5069894;28;20033;-46
2022/11/23 12:32:39;;;;;;;13.57;7.55;;;5.90;99.90;;;;;;5062598;28;20080;-49
2022/11/23 12:35:27;;;;;;;12.70;7.00;;;5.80;99.90;;;;;;5052448;28;20457;-46
2022/11/23 12:38:05;;;;;;;10.73;6.47;;;5.90;99.90;;;;;;5071465;28;20064;-49
2022/11/23 12:40:57;;;;;;;11.20;6.15;;;6.20;99.90;;;;;;5063053;28;20123;-46
2022/11/23 12:44:06;;;;;;;17.15;7.05;;;6.40;99.90;;;;;;5061137;28;20244;-46
2022/11/23 12:46:46;;;;;;;11.68;6.70;;;6.50;99.90;;;;;;5040801;28;20052;-46
2022/11/23 12:49:35;;;;;;;12.43;6.68;;;6.70;99.90;;;;;;5062120;28;20045;-46
2022/11/23 12:52:14;;;;;;;12.70;7.22;;;6.60;99.90;;;;;;5060344;28;20036;-46
2022/11/23 12:55:01;;;;;;;14.63;7.45;;;6.60;99.90;;;;;;5074024;28;20472;-48
2022/11/23 12:57:35;;;;;;;12.77;6.83;;;6.60;99.90;;;;;;5065056;28;20041;-46
2022/11/23 13:00:15;;;;;;;10.60;6.28;;;6.70;99.90;;;;;;5062903;28;20037;-46
2022/11/23 13:02:57;;;;;;;11.40;6.25;;;6.70;99.90;;;;;;5071639;28;20086;-50
2022/11/23 13:05:59;;;;;;;14.27;6.90;;;6.50;99.90;;;;;;5073823;28;20040;-47
2022/11/23 13:08:38;;;;;;;11.93;7.07;;;6.30;99.90;;;;;;5068303;28;20043;-47
2022/11/23 13:11:22;;;;;;;16.05;7.28;;;6.20;99.90;;;;;;5065249;28;20116;-47
2022/11/23 13:17:13;;;;;;;14.38;6.88;;;6.20;99.90;;;;;;5028953;28;20115;-48
2022/11/23 13:19:48;;;;;;;13.10;6.28;;;6.30;99.90;;;;;;5033872;28;20103;-48
2022/11/23 13:23:00;;;;;;;15.70;7.20;;;6.10;99.90;;;;;;5033132;28;20516;-50
2022/11/23 13:25:28;;;;;;;11.50;6.85;;;6.10;99.90;;;;;;4986450;28;20124;-50